Time;durP1;ratioP1;P1;durP2;ratioP2;P2;SDS_P1;SDS_P2;PMS_P1;PMS_P2;Temp;Humidity;BMP_temperature;BMP_pressure;BME280_temperature;BME280_humidity;BME280_pressure;Samples;Min_cycle;Max_cycle;Signal;HPM_P1;HPM_P2
2021/06/17 00:00:28;;;;;;;0.00;0.00;;;;;;;;;;5048530;28;20244;-72
2021/06/17 00:02:56;;;;;;;0.63;0.40;;;;;;;;;;5047657;28;20183;-72
2021/06/17 00:05:25;;;;;;;0.00;0.00;;;;;;;;;;5045942;28;20184;-74
2021/06/17 00:07:52;;;;;;;4.97;0.83;;;;;;;;;;5045334;28;20219;-73
2021/06/17 00:10:27;;;;;;;4.00;2.00;;;;;;;;;;5042692;28;20190;-73
2021/06/17 00:12:55;;;;;;;1.10;1.03;;;;;;;;;;5045328;28;20773;-73
2021/06/17 00:15:22;;;;;;;2.33;1.90;;;;;;;;;;5042985;28;20559;-73
2021/06/17 00:17:49;;;;;;;1.50;1.07;;;;;;;;;;5040536;28;20672;-73
2021/06/17 00:20:16;;;;;;;1.40;0.37;;;;;;;;;;5044680;28;20775;-73
2021/06/17 00:22:44;;;;;;;0.67;0.67;;;;;;;;;;5041609;28;20187;-73
2021/06/17 00:25:11;;;;;;;1.90;0.87;;;;;;;;;;5048638;28;20179;-72
2021/06/17 00:27:38;;;;;;;0.00;0.00;;;;;;;;;;5049008;28;20760;-73
2021/06/17 00:30:06;;;;;;;2.17;1.40;;;;;;;;;;5041494;28;20206;-72
2021/06/17 00:32:33;;;;;;;4.97;4.73;;;;;;;;;;5041070;28;20989;-72
2021/06/17 00:35:00;;;;;;;1.20;0.83;;;;;;;;;;5049239;28;20187;-73
2021/06/17 00:37:27;;;;;;;1.53;0.47;;;;;;;;;;5052823;28;20329;-72
2021/06/17 00:39:54;;;;;;;0.27;0.27;;;;;;;;;;5048133;28;20198;-73
2021/06/17 00:42:21;;;;;;;0.00;0.00;;;;;;;;;;5049142;28;20292;-73
2021/06/17 00:44:48;;;;;;;0.00;0.00;;;;;;;;;;5044823;28;20202;-73
2021/06/17 00:47:15;;;;;;;0.00;0.00;;;;;;;;;;5045044;28;20301;-73
2021/06/17 00:49:42;;;;;;;0.13;0.13;;;;;;;;;;5049469;28;20194;-73
2021/06/17 00:52:09;;;;;;;0.50;0.50;;;;;;;;;;5044779;28;20307;-73
2021/06/17 00:54:36;;;;;;;3.93;1.13;;;;;;;;;;5044234;28;20184;-73
2021/06/17 00:57:04;;;;;;;2.87;0.57;;;;;;;;;;5049624;28;20210;-73
2021/06/17 00:59:32;;;;;;;1.17;1.17;;;;;;;;;;5047766;28;20261;-71
2021/06/17 01:01:59;;;;;;;2.73;0.20;;;;;;;;;;5057495;28;20179;-71
2021/06/17 01:04:36;;;;;;;0.00;0.00;;;;;;;;;;5055243;28;20179;-71
2021/06/17 01:07:04;;;;;;;0.07;0.07;;;;;;;;;;5049856;28;20226;-71
2021/06/17 01:09:48;;;;;;;3.40;1.07;;;;;;;;;;5052687;28;20175;-72
2021/06/17 01:12:21;;;;;;;2.63;1.50;;;;;;;;;;5047026;28;20202;-72
2021/06/17 01:14:57;;;;;;;0.17;0.10;;;;;;;;;;5055343;28;20280;-72
2021/06/17 01:17:24;;;;;;;1.23;1.13;;;;;;;;;;5049530;28;20187;-72
2021/06/17 01:19:57;;;;;;;0.57;0.57;;;;;;;;;;5057226;28;21733;-71
2021/06/17 01:22:33;;;;;;;9.53;4.13;;;;;;;;;;5045992;28;20186;-73
2021/06/17 01:25:03;;;;;;;2.03;1.13;;;;;;;;;;5039729;28;20570;-72
2021/06/17 01:27:48;;;;;;;10.17;1.00;;;;;;;;;;5045471;28;20238;-73
2021/06/17 01:30:16;;;;;;;0.00;0.00;;;;;;;;;;5052692;28;20179;-72
2021/06/17 01:32:51;;;;;;;0.50;0.50;;;;;;;;;;5052404;28;20360;-72
2021/06/17 01:35:20;;;;;;;0.00;0.00;;;;;;;;;;5047065;28;20187;-73
2021/06/17 01:37:47;;;;;;;0.00;0.00;;;;;;;;;;5047185;28;20273;-73
2021/06/17 01:40:14;;;;;;;0.00;0.00;;;;;;;;;;5045549;28;20198;-72
2021/06/17 01:42:43;;;;;;;5.93;0.40;;;;;;;;;;5047320;28;20702;-72
2021/06/17 01:45:11;;;;;;;0.53;0.53;;;;;;;;;;5049705;28;20194;-73
2021/06/17 01:47:38;;;;;;;13.30;2.47;;;;;;;;;;5048441;28;20202;-72
2021/06/17 01:50:06;;;;;;;1.70;0.77;;;;;;;;;;5053812;28;20546;-73
2021/06/17 01:52:34;;;;;;;1.30;0.53;;;;;;;;;;5046939;28;20187;-72
2021/06/17 01:55:01;;;;;;;5.53;1.50;;;;;;;;;;5046837;28;20210;-73
2021/06/17 01:57:29;;;;;;;3.60;1.70;;;;;;;;;;5051687;28;20183;-73
2021/06/17 01:59:56;;;;;;;10.80;2.17;;;;;;;;;;5046449;28;20184;-74
2021/06/17 02:02:23;;;;;;;7.97;3.20;;;;;;;;;;5050969;28;20183;-73
2021/06/17 02:04:51;;;;;;;2.43;2.33;;;;;;;;;;5048244;28;20183;-72
2021/06/17 02:07:20;;;;;;;1.83;0.80;;;;;;;;;;5049041;28;20210;-72
2021/06/17 02:09:48;;;;;;;0.00;0.00;;;;;;;;;;5048411;28;20179;-73
2021/06/17 02:12:15;;;;;;;0.83;0.83;;;;;;;;;;5050566;28;20210;-72
2021/06/17 02:14:43;;;;;;;0.50;0.50;;;;;;;;;;5049892;28;20183;-72
2021/06/17 02:17:11;;;;;;;9.23;2.53;;;;;;;;;;5046868;28;20187;-73
2021/06/17 02:19:38;;;;;;;0.00;0.00;;;;;;;;;;5046591;28;20836;-73
2021/06/17 02:22:05;;;;;;;0.90;0.60;;;;;;;;;;5048769;28;20271;-74
2021/06/17 02:24:34;;;;;;;3.57;1.53;;;;;;;;;;5048919;28;20201;-72
2021/06/17 02:27:06;;;;;;;3.73;1.30;;;;;;;;;;5050321;28;20238;-73
2021/06/17 02:29:36;;;;;;;19.67;1.73;;;;;;;;;;5049455;28;20202;-73
2021/06/17 02:32:05;;;;;;;0.67;0.67;;;;;;;;;;5050676;28;20294;-72
2021/06/17 02:34:32;;;;;;;0.97;0.87;;;;;;;;;;5051647;28;20182;-73
2021/06/17 02:36:59;;;;;;;2.70;0.73;;;;;;;;;;5052187;28;20263;-73
2021/06/17 02:39:27;;;;;;;3.40;0.83;;;;;;;;;;5052074;28;20233;-73
2021/06/17 02:41:56;;;;;;;10.30;2.07;;;;;;;;;;5052352;28;20225;-74
2021/06/17 02:44:26;;;;;;;0.00;0.00;;;;;;;;;;5051352;28;20183;-73
2021/06/17 02:46:53;;;;;;;0.20;0.20;;;;;;;;;;5054722;28;20207;-74
2021/06/17 02:49:20;;;;;;;0.30;0.30;;;;;;;;;;5052496;28;20190;-73
2021/06/17 02:51:47;;;;;;;0.20;0.20;;;;;;;;;;5049864;28;20171;-73
2021/06/17 02:54:18;;;;;;;0.13;0.13;;;;;;;;;;5051376;28;20835;-73
2021/06/17 02:56:50;;;;;;;0.13;0.13;;;;;;;;;;5055252;28;20728;-73
2021/06/17 02:59:35;;;;;;;0.57;0.57;;;;;;;;;;5055037;28;20180;-73
2021/06/17 03:02:05;;;;;;;0.00;0.00;;;;;;;;;;5052089;28;20812;-73
2021/06/17 03:04:50;;;;;;;1.60;1.13;;;;;;;;;;5049181;28;20766;-73
2021/06/17 03:07:24;;;;;;;0.67;0.67;;;;;;;;;;5055743;28;20208;-73
2021/06/17 03:09:59;;;;;;;6.03;0.40;;;;;;;;;;5057070;28;20212;-73
2021/06/17 03:12:27;;;;;;;1.73;0.30;;;;;;;;;;5053219;28;20189;-73
2021/06/17 03:14:55;;;;;;;2.40;1.10;;;;;;;;;;5054420;28;20175;-73
2021/06/17 03:17:22;;;;;;;0.20;0.20;;;;;;;;;;5050797;28;20195;-73
2021/06/17 03:19:50;;;;;;;0.00;0.00;;;;;;;;;;5053819;28;20191;-73
2021/06/17 03:22:19;;;;;;;1.80;1.23;;;;;;;;;;5053368;28;20191;-73
2021/06/17 03:24:47;;;;;;;0.00;0.00;;;;;;;;;;5052024;28;20921;-73
2021/06/17 03:27:13;;;;;;;0.30;0.27;;;;;;;;;;5048338;28;20816;-73
2021/06/17 03:29:44;;;;;;;0.10;0.10;;;;;;;;;;5052630;28;20317;-73
2021/06/17 03:32:11;;;;;;;5.07;1.33;;;;;;;;;;5051131;28;20182;-73
2021/06/17 03:34:38;;;;;;;5.50;1.07;;;;;;;;;;5044332;28;20214;-72
2021/06/17 03:37:05;;;;;;;9.57;0.93;;;;;;;;;;5050926;28;20933;-73
2021/06/17 03:39:32;;;;;;;1.43;0.53;;;;;;;;;;5050836;28;20194;-73
2021/06/17 03:42:00;;;;;;;5.50;2.07;;;;;;;;;;5056408;28;20190;-73
2021/06/17 03:44:28;;;;;;;1.57;0.63;;;;;;;;;;5054630;28;20201;-74
2021/06/17 03:46:57;;;;;;;3.30;1.50;;;;;;;;;;5062276;28;20214;-74
2021/06/17 03:49:24;;;;;;;0.00;0.00;;;;;;;;;;5061710;28;20170;-73
2021/06/17 03:51:52;;;;;;;2.67;1.27;;;;;;;;;;5054341;28;20625;-74
2021/06/17 03:54:27;;;;;;;25.80;1.83;;;;;;;;;;5061004;28;20912;-74
2021/06/17 03:57:01;;;;;;;0.00;0.00;;;;;;;;;;5056170;28;20301;-74
2021/06/17 03:59:32;;;;;;;1.63;1.53;;;;;;;;;;5050012;28;20185;-73
2021/06/17 04:01:59;;;;;;;0.07;0.07;;;;;;;;;;5053267;28;20369;-74
2021/06/17 04:04:26;;;;;;;0.03;0.03;;;;;;;;;;5053565;28;20171;-74
2021/06/17 04:06:54;;;;;;;0.97;0.97;;;;;;;;;;5050432;28;20206;-72
2021/06/17 04:09:28;;;;;;;0.07;0.07;;;;;;;;;;5052977;28;20249;-74
2021/06/17 04:12:00;;;;;;;1.50;1.43;;;;;;;;;;5052615;28;20174;-73
2021/06/17 04:14:27;;;;;;;4.40;1.70;;;;;;;;;;5055780;28;20211;-74
2021/06/17 04:16:54;;;;;;;2.93;0.93;;;;;;;;;;5058708;28;20195;-74
2021/06/17 04:19:26;;;;;;;0.93;0.47;;;;;;;;;;5055568;28;20191;-74
2021/06/17 04:21:56;;;;;;;0.30;0.30;;;;;;;;;;5052763;28;20201;-74
2021/06/17 04:24:23;;;;;;;1.80;0.73;;;;;;;;;;5050555;28;20187;-73
2021/06/17 04:26:52;;;;;;;11.13;3.53;;;;;;;;;;5053760;28;20779;-74
2021/06/17 04:29:18;;;;;;;2.13;1.27;;;;;;;;;;5049884;28;20964;-73
2021/06/17 04:31:46;;;;;;;11.53;1.50;;;;;;;;;;5056939;28;20544;-72
2021/06/17 04:34:13;;;;;;;2.63;0.37;;;;;;;;;;5055201;28;20203;-72
2021/06/17 04:36:40;;;;;;;0.00;0.00;;;;;;;;;;5051206;28;21000;-73
2021/06/17 04:39:07;;;;;;;1.80;1.70;;;;;;;;;;5053027;28;20716;-73
2021/06/17 04:41:34;;;;;;;1.43;0.47;;;;;;;;;;5049771;28;20301;-72
2021/06/17 04:44:02;;;;;;;0.00;0.00;;;;;;;;;;5051033;28;20183;-73
2021/06/17 04:46:30;;;;;;;4.67;0.80;;;;;;;;;;5049140;28;21263;-73
2021/06/17 04:48:57;;;;;;;1.47;0.80;;;;;;;;;;5046442;28;20763;-73
2021/06/17 04:51:25;;;;;;;0.20;0.20;;;;;;;;;;5048574;28;20236;-73
2021/06/17 04:53:53;;;;;;;5.83;0.53;;;;;;;;;;5048828;28;20187;-72
2021/06/17 04:56:20;;;;;;;4.00;1.93;;;;;;;;;;5048700;28;20183;-72
2021/06/17 04:58:50;;;;;;;17.57;3.10;;;;;;;;;;5048867;28;20191;-72
2021/06/17 05:01:18;;;;;;;0.30;0.30;;;;;;;;;;5051494;28;20193;-72
2021/06/17 05:03:48;;;;;;;0.00;0.00;;;;;;;;;;5051011;28;20194;-73
2021/06/17 05:06:18;;;;;;;1.80;0.83;;;;;;;;;;5050288;28;20197;-73
2021/06/17 05:11:30;;;;;;;0.00;0.00;;;;;;;;;;5053632;28;20667;-74
2021/06/17 05:13:56;;;;;;;0.10;0.10;;;;;;;;;;5050583;28;20193;-73
2021/06/17 05:16:24;;;;;;;6.30;1.43;;;;;;;;;;5050575;28;21073;-74
2021/06/17 05:18:51;;;;;;;5.53;0.63;;;;;;;;;;5055416;28;20669;-74
2021/06/17 05:21:17;;;;;;;0.00;0.00;;;;;;;;;;5057375;28;20190;-74
2021/06/17 05:23:44;;;;;;;0.00;0.00;;;;;;;;;;5051681;28;20185;-73
2021/06/17 05:26:11;;;;;;;4.83;1.77;;;;;;;;;;5049316;28;20298;-74
2021/06/17 05:28:37;;;;;;;2.83;1.50;;;;;;;;;;5051549;28;20256;-73
2021/06/17 05:31:07;;;;;;;3.70;0.97;;;;;;;;;;5052288;28;20190;-75
2021/06/17 05:33:34;;;;;;;0.00;0.00;;;;;;;;;;5052284;28;20190;-74
2021/06/17 05:36:02;;;;;;;6.13;1.70;;;;;;;;;;5050862;28;20190;-73
2021/06/17 05:38:31;;;;;;;6.80;0.67;;;;;;;;;;5050392;28;20807;-73
2021/06/17 05:40:57;;;;;;;0.53;0.47;;;;;;;;;;5048103;28;20183;-74
2021/06/17 05:43:24;;;;;;;2.73;1.93;;;;;;;;;;5049829;28;20190;-73
2021/06/17 05:45:51;;;;;;;1.20;0.40;;;;;;;;;;5050892;28;20281;-73
2021/06/17 05:48:17;;;;;;;9.40;1.23;;;;;;;;;;5049721;28;20749;-73
2021/06/17 05:50:44;;;;;;;0.00;0.00;;;;;;;;;;5050679;28;20182;-74
2021/06/17 05:53:11;;;;;;;0.30;0.30;;;;;;;;;;5047875;28;20392;-73
2021/06/17 05:55:37;;;;;;;1.80;1.70;;;;;;;;;;5048927;28;20223;-73
2021/06/17 05:58:05;;;;;;;7.77;2.27;;;;;;;;;;5050502;28;20203;-72
2021/06/17 06:00:32;;;;;;;6.33;0.57;;;;;;;;;;5048868;28;20906;-71
2021/06/17 06:02:59;;;;;;;1.80;0.63;;;;;;;;;;5047067;28;20229;-72
2021/06/17 06:05:26;;;;;;;4.60;0.73;;;;;;;;;;5048077;28;20579;-70
2021/06/17 06:07:59;;;;;;;19.73;3.67;;;;;;;;;;5048994;28;20245;-70
2021/06/17 06:10:26;;;;;;;1.93;0.87;;;;;;;;;;5053317;28;20186;-70
2021/06/17 06:12:54;;;;;;;0.00;0.00;;;;;;;;;;5053279;28;20197;-71
2021/06/17 06:15:21;;;;;;;1.60;0.73;;;;;;;;;;5052014;28;20175;-70
2021/06/17 06:17:48;;;;;;;0.77;0.33;;;;;;;;;;5053132;28;20193;-71
2021/06/17 06:20:15;;;;;;;5.97;2.57;;;;;;;;;;5052928;28;20217;-71
2021/06/17 06:22:49;;;;;;;4.43;2.17;;;;;;;;;;5059652;28;20198;-70
2021/06/17 06:25:18;;;;;;;0.60;0.40;;;;;;;;;;5063192;28;20193;-71
2021/06/17 06:27:44;;;;;;;0.00;0.00;;;;;;;;;;5063520;28;20230;-71
2021/06/17 06:30:14;;;;;;;1.43;1.03;;;;;;;;;;5060254;28;20252;-71
2021/06/17 06:32:42;;;;;;;0.53;0.43;;;;;;;;;;5061553;28;20186;-71
2021/06/17 06:35:09;;;;;;;0.30;0.30;;;;;;;;;;5060051;28;20199;-71
2021/06/17 06:37:37;;;;;;;0.20;0.20;;;;;;;;;;5054201;28;20186;-72
2021/06/17 06:40:04;;;;;;;3.53;1.17;;;;;;;;;;5054116;28;20232;-72
2021/06/17 06:42:31;;;;;;;6.23;2.10;;;;;;;;;;5053433;28;20187;-72
2021/06/17 06:44:57;;;;;;;2.30;0.63;;;;;;;;;;5052455;28;20185;-72
2021/06/17 06:47:24;;;;;;;0.00;0.00;;;;;;;;;;5052322;28;20217;-72
2021/06/17 06:49:50;;;;;;;2.00;1.10;;;;;;;;;;5053852;28;20243;-72
2021/06/17 06:52:17;;;;;;;0.87;0.53;;;;;;;;;;5052833;28;20207;-72
2021/06/17 06:54:43;;;;;;;1.37;1.07;;;;;;;;;;5052327;28;20193;-72
2021/06/17 06:57:10;;;;;;;0.00;0.00;;;;;;;;;;5055118;28;20198;-72
2021/06/17 06:59:36;;;;;;;0.00;0.00;;;;;;;;;;5051032;28;20217;-72
2021/06/17 07:02:03;;;;;;;1.27;0.63;;;;;;;;;;5050903;28;20187;-72
2021/06/17 07:04:30;;;;;;;0.20;0.20;;;;;;;;;;5054727;28;20655;-72
2021/06/17 07:06:56;;;;;;;0.27;0.27;;;;;;;;;;5052567;28;20840;-72
2021/06/17 07:09:23;;;;;;;0.47;0.47;;;;;;;;;;5048433;28;20182;-72
2021/06/17 07:11:49;;;;;;;1.70;0.60;;;;;;;;;;5048840;28;20241;-73
2021/06/17 07:14:16;;;;;;;0.30;0.30;;;;;;;;;;5052953;28;20437;-72
2021/06/17 07:16:43;;;;;;;0.43;0.43;;;;;;;;;;5052843;28;20373;-72
2021/06/17 07:19:11;;;;;;;1.00;0.87;;;;;;;;;;5054031;28;20195;-72
2021/06/17 07:21:38;;;;;;;0.00;0.00;;;;;;;;;;5049898;28;20193;-72
2021/06/17 07:24:05;;;;;;;2.10;1.27;;;;;;;;;;5052213;28;20201;-72
2021/06/17 07:26:31;;;;;;;4.13;1.23;;;;;;;;;;5051197;28;20268;-72
2021/06/17 07:29:00;;;;;;;2.53;0.67;;;;;;;;;;5053720;28;20238;-72
2021/06/17 07:31:27;;;;;;;7.37;2.93;;;;;;;;;;5053622;28;20214;-73
2021/06/17 07:33:53;;;;;;;4.97;1.37;;;;;;;;;;5050656;28;20219;-72
2021/06/17 07:36:20;;;;;;;0.30;0.30;;;;;;;;;;5052404;28;20175;-73
2021/06/17 07:38:46;;;;;;;0.20;0.20;;;;;;;;;;5051059;28;20184;-73
2021/06/17 07:41:13;;;;;;;0.27;0.10;;;;;;;;;;5051392;28;20176;-73
2021/06/17 07:43:40;;;;;;;2.83;1.20;;;;;;;;;;5051147;28;20179;-73
2021/06/17 07:46:06;;;;;;;0.53;0.53;;;;;;;;;;5049541;28;20915;-72
2021/06/17 07:48:33;;;;;;;5.37;4.97;;;;;;;;;;5054443;28;20827;-73
2021/06/17 07:51:00;;;;;;;24.33;0.83;;;;;;;;;;5052739;28;20169;-73
2021/06/17 07:53:26;;;;;;;0.00;0.00;;;;;;;;;;5050964;28;20586;-72
2021/06/17 07:55:53;;;;;;;0.00;0.00;;;;;;;;;;5051299;28;20187;-73
2021/06/17 07:58:19;;;;;;;4.23;1.93;;;;;;;;;;5053095;28;20179;-73
2021/06/17 08:00:46;;;;;;;0.00;0.00;;;;;;;;;;5050018;28;20240;-72
2021/06/17 08:03:12;;;;;;;0.97;0.73;;;;;;;;;;5051826;28;20334;-72
2021/06/17 08:05:39;;;;;;;1.13;1.13;;;;;;;;;;5050866;28;20262;-73
2021/06/17 08:08:07;;;;;;;5.20;1.17;;;;;;;;;;5049026;28;20203;-74
2021/06/17 08:10:34;;;;;;;0.30;0.20;;;;;;;;;;5051159;28;20247;-73
2021/06/17 08:13:00;;;;;;;3.73;1.53;;;;;;;;;;5051715;28;20235;-72
2021/06/17 13:50:06;;;;;;;1.30;0.70;;;;;;;;;;5097641;27;20665;-64
2021/06/17 13:52:32;;;;;;;0.50;0.40;;;;;;;;;;5096577;28;20552;-65
2021/06/17 13:54:59;;;;;;;0.27;0.27;;;;;;;;;;5097878;28;20312;-64
2021/06/17 13:57:26;;;;;;;0.40;0.40;;;;;;;;;;5096813;28;20325;-65
2021/06/17 13:59:52;;;;;;;1.47;0.57;;;;;;;;;;5097065;28;20194;-64
2021/06/17 14:02:19;;;;;;;3.40;0.67;;;;;;;;;;5096505;28;20190;-65
2021/06/17 14:04:46;;;;;;;2.43;1.13;;;;;;;;;;5082958;28;20211;-65
2021/06/17 14:07:13;;;;;;;1.97;0.50;;;;;;;;;;5089450;28;20695;-64
2021/06/17 14:09:39;;;;;;;3.10;1.03;;;;;;;;;;5099957;28;20209;-64
2021/06/17 14:12:06;;;;;;;1.50;0.20;;;;;;;;;;5098870;28;20187;-72
2021/06/17 14:14:33;;;;;;;2.40;0.53;;;;;;;;;;5094536;28;20225;-71
2021/06/17 14:17:00;;;;;;;4.73;2.30;;;;;;;;;;5093804;28;20186;-72
2021/06/17 14:19:26;;;;;;;0.83;0.40;;;;;;;;;;5095541;28;20873;-72
2021/06/17 14:21:54;;;;;;;8.10;1.00;;;;;;;;;;5089597;28;20190;-71
2021/06/17 14:24:21;;;;;;;3.13;1.70;;;;;;;;;;5094390;28;20193;-71
2021/06/17 14:26:49;;;;;;;0.97;0.93;;;;;;;;;;5096019;28;20361;-72
2021/06/17 14:29:16;;;;;;;3.30;0.40;;;;;;;;;;5089245;28;20204;-67
2021/06/17 14:31:42;;;;;;;0.00;0.00;;;;;;;;;;5101183;28;20171;-64
2021/06/17 14:34:09;;;;;;;4.60;1.03;;;;;;;;;;5092014;28;20174;-65
2021/06/17 14:36:37;;;;;;;7.80;0.93;;;;;;;;;;5088665;28;20842;-65
2021/06/17 14:39:04;;;;;;;11.63;2.90;;;;;;;;;;5094695;28;20220;-66
2021/06/17 14:41:31;;;;;;;1.23;0.40;;;;;;;;;;5092276;28;20175;-64
2021/06/17 14:43:57;;;;;;;1.50;0.20;;;;;;;;;;5090201;28;20292;-64
2021/06/17 14:46:24;;;;;;;0.57;0.30;;;;;;;;;;5091358;28;20256;-64
2021/06/17 14:48:50;;;;;;;0.00;0.00;;;;;;;;;;5093512;28;20224;-65
2021/06/17 14:51:17;;;;;;;0.00;0.00;;;;;;;;;;5091031;28;20166;-65
2021/06/17 14:53:45;;;;;;;3.27;1.23;;;;;;;;;;5095115;28;20170;-65
2021/06/17 14:56:12;;;;;;;0.83;0.50;;;;;;;;;;5095186;28;20183;-66
2021/06/17 14:58:38;;;;;;;1.30;1.20;;;;;;;;;;5088362;28;20201;-65
2021/06/17 15:01:05;;;;;;;3.50;0.73;;;;;;;;;;5067307;28;20187;-66
2021/06/17 15:03:32;;;;;;;0.23;0.23;;;;;;;;;;5074727;28;20170;-65
2021/06/17 15:05:58;;;;;;;3.13;1.93;;;;;;;;;;5080991;28;20182;-64
2021/06/17 15:08:25;;;;;;;0.23;0.23;;;;;;;;;;5080455;28;20205;-65
2021/06/17 15:10:52;;;;;;;0.93;0.20;;;;;;;;;;5072095;28;20184;-65
2021/06/17 15:13:18;;;;;;;1.97;1.47;;;;;;;;;;5072679;28;20181;-65
2021/06/17 15:15:45;;;;;;;2.10;1.13;;;;;;;;;;5078083;28;20198;-65
2021/06/17 15:18:12;;;;;;;1.17;0.40;;;;;;;;;;5078826;28;20181;-66
2021/06/17 15:20:42;;;;;;;3.13;0.83;;;;;;;;;;5073664;28;20257;-66
2021/06/17 15:23:10;;;;;;;0.30;0.27;;;;;;;;;;5065463;28;20188;-66
2021/06/17 15:25:37;;;;;;;0.40;0.00;;;;;;;;;;5080459;28;20233;-65
2021/06/17 15:28:04;;;;;;;0.30;0.10;;;;;;;;;;5071371;28;20913;-66
2021/06/17 15:30:31;;;;;;;2.63;1.13;;;;;;;;;;5068709;28;20176;-67
2021/06/17 15:32:57;;;;;;;0.30;0.27;;;;;;;;;;5064990;28;20176;-65
2021/06/17 15:35:24;;;;;;;6.50;0.83;;;;;;;;;;5075705;28;20179;-65
2021/06/17 15:37:52;;;;;;;0.57;0.37;;;;;;;;;;5069140;28;20187;-68
2021/06/17 15:40:19;;;;;;;0.00;0.00;;;;;;;;;;5062975;28;20492;-69
2021/06/17 15:42:45;;;;;;;0.77;0.10;;;;;;;;;;5064874;28;20187;-67
2021/06/17 15:45:12;;;;;;;2.63;0.30;;;;;;;;;;5067151;28;20300;-67
2021/06/17 15:47:39;;;;;;;0.40;0.17;;;;;;;;;;5064268;28;20627;-68
2021/06/17 15:50:06;;;;;;;1.57;1.13;;;;;;;;;;5070676;28;20888;-67
2021/06/17 15:52:36;;;;;;;0.97;0.07;;;;;;;;;;5062761;28;20753;-69
2021/06/17 15:55:03;;;;;;;0.23;0.23;;;;;;;;;;5063318;28;20184;-68
2021/06/17 15:57:29;;;;;;;0.60;0.60;;;;;;;;;;5065743;28;20201;-68
2021/06/17 15:59:58;;;;;;;1.77;0.60;;;;;;;;;;5068965;28;20767;-69
2021/06/17 16:02:24;;;;;;;3.80;1.73;;;;;;;;;;5064428;28;20189;-67
2021/06/17 16:04:51;;;;;;;0.90;0.70;;;;;;;;;;5079820;28;20777;-68
2021/06/17 16:33:16;;;;;;;6.97;1.27;;;;;;;;;;4976699;22;20311;-65
2021/06/17 16:35:42;;;;;;;0.83;0.23;;;;;;;;;;4986564;28;20211;-65
2021/06/17 16:38:09;;;;;;;8.27;1.80;;;;;;;;;;4997662;28;20282;-65
2021/06/17 16:40:36;;;;;;;2.17;1.57;;;;;;;;;;4993656;28;20211;-65
2021/06/17 16:43:02;;;;;;;5.77;2.00;;;;;;;;;;4993487;28;20763;-65
2021/06/17 17:06:15;;;;;;;8.30;1.73;;;;;;;;;;3127874;22;20237;-63
2021/06/17 17:08:42;;;;;;;2.73;0.67;;;;;;;;;;5036770;28;20230;-63
2021/06/17 17:11:08;;;;;;;1.63;1.47;;;;;;;;;;5035236;28;20277;-62
2021/06/17 17:13:35;;;;;;;10.57;1.40;;;;;;;;;;5033544;28;20223;-63
2021/06/17 17:16:01;;;;;;;0.33;0.33;;;;;;;;;;5035135;28;21142;-63
2021/06/17 17:18:28;;;;;;;0.20;0.13;;;;;;;;;;5034965;28;20184;-63
2021/06/17 17:20:54;;;;;;;0.73;0.73;;;;;;;;;;5039982;28;20184;-63
2021/06/17 17:23:21;;;;;;;0.10;0.10;;;;;;;;;;5037234;28;20329;-63
2021/06/17 17:25:47;;;;;;;5.30;1.83;;;;;;;;;;5021140;28;20199;-63
2021/06/17 17:28:14;;;;;;;0.00;0.00;;;;;;;;;;5033071;28;20206;-63
2021/06/17 17:30:40;;;;;;;11.60;1.83;;;;;;;;;;5035896;28;20187;-63
2021/06/17 17:33:07;;;;;;;8.63;1.53;;;;;;;;;;5037873;28;20183;-63
2021/06/17 17:35:33;;;;;;;1.10;0.47;;;;;;;;;;5036410;28;20196;-63
2021/06/17 17:38:00;;;;;;;0.00;0.00;;;;;;;;;;5037548;28;20205;-63
2021/06/17 17:40:26;;;;;;;4.07;1.60;;;;;;;;;;5039017;28;20508;-63
2021/06/17 17:42:53;;;;;;;13.50;3.13;;;;;;;;;;5037815;28;20196;-63
2021/06/17 17:45:20;;;;;;;14.77;1.43;;;;;;;;;;5018539;28;20196;-64
2021/06/17 17:47:46;;;;;;;1.97;1.57;;;;;;;;;;5036097;28;20193;-63
2021/06/17 17:50:13;;;;;;;7.87;3.43;;;;;;;;;;5032290;28;20184;-63
2021/06/17 17:52:40;;;;;;;11.17;3.43;;;;;;;;;;5031266;28;20185;-63
2021/06/17 17:55:08;;;;;;;15.93;2.10;;;;;;;;;;5038190;28;20184;-63
2021/06/17 17:57:36;;;;;;;35.13;2.90;;;;;;;;;;5034983;28;20187;-63
2021/06/17 18:00:08;;;;;;;0.67;0.63;;;;;;;;;;5035844;28;20198;-63
2021/06/17 18:02:35;;;;;;;2.63;1.90;;;;;;;;;;5020643;28;20191;-63
2021/06/17 18:05:02;;;;;;;10.20;3.83;;;;;;;;;;5041274;28;20180;-63
2021/06/17 18:07:28;;;;;;;5.73;1.80;;;;;;;;;;5034977;28;20246;-61
2021/06/17 18:09:58;;;;;;;7.00;0.87;;;;;;;;;;5032138;28;20212;-63
2021/06/17 18:12:24;;;;;;;4.70;1.60;;;;;;;;;;5034363;28;20202;-63
2021/06/17 18:14:52;;;;;;;4.53;1.70;;;;;;;;;;5040516;28;20565;-63
2021/06/17 18:17:23;;;;;;;9.80;1.37;;;;;;;;;;5039838;28;20184;-62
2021/06/17 18:19:50;;;;;;;5.87;2.27;;;;;;;;;;5036742;28;20191;-63
2021/06/17 18:22:18;;;;;;;7.10;2.20;;;;;;;;;;5037308;28;20293;-63
2021/06/17 18:24:46;;;;;;;1.23;0.60;;;;;;;;;;5031157;28;20199;-63
2021/06/17 18:27:16;;;;;;;6.90;3.33;;;;;;;;;;5037105;28;20194;-62
2021/06/17 18:29:43;;;;;;;0.90;0.43;;;;;;;;;;5034430;28;20203;-62
2021/06/17 18:32:10;;;;;;;6.93;1.33;;;;;;;;;;5041170;28;20833;-63
2021/06/17 18:34:36;;;;;;;0.90;0.87;;;;;;;;;;5039832;28;20295;-63
2021/06/17 18:37:04;;;;;;;3.00;1.40;;;;;;;;;;5040935;28;20342;-63
2021/06/17 18:39:31;;;;;;;4.70;1.03;;;;;;;;;;5040795;28;20183;-62
2021/06/17 18:41:57;;;;;;;2.07;0.50;;;;;;;;;;5042860;28;20810;-63
2021/06/17 18:44:25;;;;;;;0.60;0.47;;;;;;;;;;5041702;28;20336;-62
2021/06/17 18:46:52;;;;;;;6.50;0.70;;;;;;;;;;5036751;28;20183;-62
2021/06/17 18:49:19;;;;;;;1.10;0.63;;;;;;;;;;5034896;28;20211;-63
2021/06/17 18:51:46;;;;;;;4.80;1.10;;;;;;;;;;5041227;28;20205;-62
2021/06/17 18:54:13;;;;;;;8.73;2.07;;;;;;;;;;5039926;28;20191;-64
2021/06/17 18:56:39;;;;;;;14.83;2.43;;;;;;;;;;5039492;28;20615;-62
2021/06/17 18:59:06;;;;;;;13.30;0.90;;;;;;;;;;5021378;28;20871;-63
2021/06/17 19:01:34;;;;;;;1.97;0.63;;;;;;;;;;5039721;28;21104;-64
2021/06/17 19:04:00;;;;;;;10.20;2.00;;;;;;;;;;5038067;28;20199;-63
2021/06/17 19:06:27;;;;;;;7.93;1.83;;;;;;;;;;5035501;28;20692;-62
2021/06/17 19:08:53;;;;;;;0.57;0.33;;;;;;;;;;5043342;28;20270;-63
2021/06/17 19:11:23;;;;;;;2.20;1.10;;;;;;;;;;5039700;28;20206;-63
2021/06/17 19:13:49;;;;;;;11.33;1.17;;;;;;;;;;5041876;28;20638;-63
2021/06/17 19:16:16;;;;;;;1.60;1.50;;;;;;;;;;5039786;28;20186;-61
2021/06/17 19:18:43;;;;;;;2.53;1.07;;;;;;;;;;5039499;28;20188;-60
2021/06/17 19:21:14;;;;;;;3.93;1.40;;;;;;;;;;5037197;28;20193;-60
2021/06/17 19:23:50;;;;;;;4.07;0.90;;;;;;;;;;5047707;28;20187;-60
2021/06/17 19:26:18;;;;;;;0.10;0.10;;;;;;;;;;5048814;28;20186;-58
2021/06/17 19:28:46;;;;;;;0.40;0.33;;;;;;;;;;5046989;28;20214;-59
2021/06/17 19:31:21;;;;;;;6.77;2.83;;;;;;;;;;5043043;28;20238;-58
2021/06/17 19:33:48;;;;;;;5.50;0.77;;;;;;;;;;5040012;28;20198;-58
2021/06/17 19:36:15;;;;;;;1.40;0.30;;;;;;;;;;5038418;28;20261;-58
2021/06/17 19:38:41;;;;;;;8.73;5.70;;;;;;;;;;5040230;28;20797;-58
2021/06/17 19:41:08;;;;;;;0.00;0.00;;;;;;;;;;5042060;28;20276;-58
2021/06/17 19:43:34;;;;;;;1.60;0.87;;;;;;;;;;5038602;28;20188;-58
2021/06/17 19:46:01;;;;;;;0.00;0.00;;;;;;;;;;5042009;28;20187;-59
2021/06/17 19:48:28;;;;;;;3.33;0.47;;;;;;;;;;5047951;28;20353;-58
2021/06/17 19:50:57;;;;;;;19.97;1.90;;;;;;;;;;5044418;28;20202;-59
2021/06/17 19:53:24;;;;;;;1.93;1.23;;;;;;;;;;5042320;28;20211;-59
2021/06/17 19:58:20;;;;;;;2.80;0.93;;;;;;;;;;5035511;28;20249;-59
2021/06/17 20:00:46;;;;;;;9.73;2.67;;;;;;;;;;5041639;28;20192;-60
2021/06/17 20:03:14;;;;;;;10.93;1.50;;;;;;;;;;5038379;28;20696;-61
2021/06/17 20:05:43;;;;;;;0.57;0.57;;;;;;;;;;5040949;28;20231;-61
2021/06/17 20:08:12;;;;;;;5.67;1.60;;;;;;;;;;5039725;28;20220;-60
2021/06/17 20:10:40;;;;;;;1.20;1.07;;;;;;;;;;5019116;28;20767;-59
2021/06/17 20:13:08;;;;;;;1.70;0.80;;;;;;;;;;5037204;28;20257;-58
2021/06/17 20:15:38;;;;;;;4.73;0.43;;;;;;;;;;5037354;28;20179;-59
2021/06/17 20:18:05;;;;;;;10.27;2.10;;;;;;;;;;5033542;28;20195;-59
2021/06/17 20:20:32;;;;;;;19.27;2.20;;;;;;;;;;5039186;28;20188;-59
2021/06/17 20:22:59;;;;;;;6.23;2.43;;;;;;;;;;5041786;28;20198;-59
2021/06/17 20:25:28;;;;;;;2.33;0.67;;;;;;;;;;5038370;28;20837;-59
2021/06/17 20:27:55;;;;;;;1.90;0.63;;;;;;;;;;5038449;28;20188;-59
2021/06/17 20:30:22;;;;;;;44.73;4.37;;;;;;;;;;5037945;28;20180;-58
2021/06/17 20:32:48;;;;;;;8.33;2.27;;;;;;;;;;5038341;28;20207;-59
2021/06/17 20:35:17;;;;;;;10.27;3.17;;;;;;;;;;5035831;28;20214;-59
2021/06/17 20:37:43;;;;;;;0.67;0.63;;;;;;;;;;5032019;28;20292;-61
2021/06/17 20:40:11;;;;;;;6.67;1.97;;;;;;;;;;5038175;28;20195;-59
2021/06/17 20:42:37;;;;;;;7.70;2.47;;;;;;;;;;5042237;28;20253;-60
2021/06/17 20:45:05;;;;;;;12.10;1.97;;;;;;;;;;5041562;28;20196;-60
2021/06/17 20:47:31;;;;;;;16.30;3.50;;;;;;;;;;5039523;28;20191;-60
2021/06/17 20:49:58;;;;;;;6.47;1.37;;;;;;;;;;5040863;28;20648;-60
2021/06/17 20:52:24;;;;;;;2.63;1.27;;;;;;;;;;5039947;28;20191;-61
2021/06/17 20:54:51;;;;;;;12.30;3.47;;;;;;;;;;5040315;28;20731;-58
2021/06/17 20:57:19;;;;;;;5.50;2.37;;;;;;;;;;5039697;28;20286;-59
2021/06/17 20:59:46;;;;;;;0.10;0.10;;;;;;;;;;5039780;28;20534;-60
2021/06/17 21:02:12;;;;;;;4.90;1.50;;;;;;;;;;5039419;28;20657;-61
2021/06/17 21:04:40;;;;;;;20.97;3.90;;;;;;;;;;5036277;28;20184;-60
2021/06/17 21:07:07;;;;;;;8.47;1.47;;;;;;;;;;5037558;28;20689;-61
2021/06/17 21:09:33;;;;;;;10.03;2.27;;;;;;;;;;5034778;28;20210;-61